Mobirise responsive web design software

REALTIME WEATHER NETWORK

Station: ALVERCA
Elevation: 11 ft
Latest report: --

METAR
Station not yet available

Station: AGUEDA (CASARÃO)
Elevation: 304 ft
Latest report: --

METAR
Station not yet available

Station: ALENTEJO AIR PARK
Elevation: 422 ft
Latest report: --

METAR
Station not yet available

Station: ALQUEIDÃO
Elevation: 10 ft
Latest report: --

METAR
Station not yet available

Station: AMENDOEIRA
Elevation: 636 ft
Latest report: --

METAR
Station not yet available

Station: ATOUGUIA DA BALEIA
Elevation: 30 ft
Latest report: --

METAR
Station not yet available

Station: AZAMBUJA
Elevation: 15 ft
Latest report: --

METAR
Station not yet available

Station: BEJA
Elevation: 636 ft
Latest report: NOAA

METAR
LPBJ 192000Z 31013KT CAVOK 31/12 Q1015

TAF
LPBJ 191701Z 1918/2018 35005KT CAVOK
TEMPO 1918/1921 34012KT
BECMG 2000/2002 VRB02KT
BECMG 2015/2017 29010KT

Station: BEJA CIVIL
Elevation: 617 ft
Latest report: --

METAR
Station not yet available

Station: BENAVENTE
Elevation: 100 ft
Latest report: 2017-08-19 20:27:58Z

METAR
BENAV 192025Z 34006KT 23/17 Q1015

Station: BRAGA
Elevation: 243 ft
Latest report: --

METAR
Station not yet available

Station: BRAGANÇA
Elevation: 2278 ft
Latest report: 2017-08-19 20:29:00Z

METAR
LPBG 192025Z 05008KT 26/10 Q1020

Station: CABECEIRAS DE BASTO
Elevation: 2411 ft
Latest report: --

METAR
Station not yet available

Station: CASCAIS
Elevation: 326 ft
Latest report: NOAA

METAR
LPCS 192000Z 36021KT 9999 FEW012 21/14 Q1016

Station: CASTELO BRANCO
Elevation: 1251 ft
Latest report: --

METAR
Station not yet available

Station: CASTRO VERDE (HERDADE DA ZAMBUJEIRA)
Elevation: 732 ft
Latest report: --

METAR
Station not yet available

Station: CERVAL
Elevation: 141 ft
Latest report: --

METAR
Station not yet available

Station: CHAVES
Elevation: 1195 ft
Latest report: --

METAR
Station not yet available

Station: ESPINHO
Elevation: 13 ft
Latest report: --

METAR
Station not yet available

Station: ÉVORA
Elevation: 807 ft
Latest report: --

METAR
Station not yet available

Station: FARO
Elevation: 24 ft
Latest report: NOAA

METAR
LPFR 192000Z 21002KT CAVOK 24/22 Q1013

TAF
LPFR 191700Z 1918/2018 24008KT CAVOK
BECMG 1918/1920 28005KT
BECMG 1922/1924 VRB03KT
BECMG 2007/2010 12012KT

Station: FERREIRA DO ALENTEJO
Elevation: 459 ft
Latest report: --

METAR
Station not yet available

Station: FERREIRA DO ZÊZERE (VALADAS)
Elevation: 1080 ft
Latest report: --

METAR
Station not yet available

Station: FIGUEIRA DOS CAVALEIROS
Elevation: 262 ft
Latest report: --

METAR
Station not yet available

Station: LAGOS
Elevation: 15 ft
Latest report: --

METAR
Station not yet available

Station: LAMEIRA
Elevation: 623 ft
Latest report: --

METAR
Station not yet available

Station: LAÚNDOS
Elevation: 262 ft
Latest report: --

METAR
Station not yet available

Station: LEIRIA
Elevation: 139 ft
Latest report: --

METAR
Station not yet available

Station: LISBOA
Elevation: 374 ft
Latest report: NOAA

METAR
LPPT 192000Z 32013KT CAVOK 23/13 Q1016

TAF
LPPT 191700Z 1918/2024 33015KT CAVOK PROB30
TEMPO 1918/1921 34020G30KT
BECMG 1921/1924 34010KT
BECMG 2004/2007 VRB03KT
BECMG 2009/2011 21007KT
BECMG 2014/2016 24008KT
BECMG 2022/2024 VRB03KT

Station: LOUSÃ
Elevation: 654 ft
Latest report: --

METAR
Station not yet available

Station: VILAR DE LUZ
Elevation: 762 ft
Latest report: 2017-08-19 20:27:01Z

METAR
LPVL 192025Z 36012KT 27/12 Q1019

Station: MIRANDELA
Elevation: 1322 ft
Latest report: 2017-08-19 20:25:14Z

METAR
LPMI 192025Z 33014KT 28/12 Q1017

Station: MOGADOURO
Elevation: 2344 ft
Latest report: 2017-08-19 20:26:09Z

METAR
LPMU 192025Z 00000KT 27/09 Q1020

Station: MONFORTE
Elevation: 900 ft
Latest report: --

METAR
Station not yet available

Station: PALMA
Elevation: 281 ft
Latest report: --

METAR
Station not yet available

Station: PEGÕES (HERDADE DO PONTAL
Elevation: 295 ft
Latest report: --

METAR
Station not yet available

Station: PONTE DE SÔR
Elevation: 390 ft
Latest report: --

METAR
Station not yet available

Station: POMBAL (CASALINHO)
Elevation: 250 ft
Latest report: --

METAR
Station not yet available

Station: PORTIMÃO
Elevation: 4 ft
Latest report: --

METAR
Station not yet available

Station: PORTO
Elevation: 227 ft
Latest report: NOAA

METAR
LPPR 192000Z 35006KT CAVOK 21/14 Q1017

TAF
LPPR 191700Z 1918/2018 33013KT CAVOK
BECMG 1919/1921 VRB03KT
BECMG 2003/2006 08008KT
BECMG 2012/2015 33010KT

Station: PROENÇA-A-NOVA
Elevation: 407 ft
Latest report: --

METAR
Station not yet available

Station: REGUENGOS (CAMPINHO)
Elevation: 630 ft
Latest report: --

METAR
Station not yet available

Station: SABUGAL (CABEÇO DA VACA)
Elevation: 3117 ft
Latest report: --

METAR
Station not yet available

Station: SANTA CRUZ
Elevation: 161 ft
Latest report: --

METAR
Station not yet available

Station: SANTARÉM
Elevation: 30 ft
Latest report: --

METAR
Station not yet available

Station: SEIA
Elevation: 1445 ft
Latest report: --

METAR
Station not yet available

Station: TOJEIRA
Elevation: 330 ft
Latest report: --

METAR
Station not yet available

Station: TOMAR (VALDONAS)
Elevation: 253 ft
Latest report: --

METAR
Station not yet available

Station: VILA REAL
Elevation: 1832 ft
Latest report: --

METAR
Station not yet available

Station: VISEU
Elevation: 2061 ft
Latest report: --

METAR
Station not yet available

Station: LEZÍRIA
Elevation: 10 ft
Latest report: --

METAR
Station not yet available

Station: FAIAS
Elevation: 134 ft
Latest report: --Z

METAR
Station not yet available

Station: COIMBRA
Elevation: 570 ft
Latest report: --Z

METAR
Station not yet available

ABOUT US

Our main objective is to increase information and safety on outdoor activities with a focus on Sports Aviation. This network of weather information gathers data from devices located in several airfields and other locations in order to provide the most accurate and localized weather information at all times. Join our network to increase the number of locations covered. Check how on the CONTACT US section.

REALTIME WEATHER NETWORK by Stingray Avionics

JOIN OUR NETWORK